createdAt,value
2022-11-26T00:01:28.235Z,4.80
2022-11-26T00:03:57.798Z,5.10
2022-11-26T00:06:42.268Z,5.00
2022-11-26T00:09:16.716Z,5.10
2022-11-26T00:11:50.095Z,5.10
2022-11-26T00:14:18.115Z,4.90
2022-11-26T00:16:47.363Z,5.00
2022-11-26T00:19:15.585Z,5.00
2022-11-26T00:21:44.876Z,5.10
2022-11-26T00:24:27.276Z,5.10
2022-11-26T00:26:59.505Z,5.10
2022-11-26T00:29:26.818Z,5.00
2022-11-26T00:31:57.098Z,4.90
2022-11-26T00:34:25.516Z,4.80
2022-11-26T00:36:52.725Z,4.70
2022-11-26T00:39:26.117Z,4.90
2022-11-26T00:41:53.936Z,4.90
2022-11-26T00:44:25.242Z,4.80
2022-11-26T00:46:52.698Z,4.80
2022-11-26T00:49:21.331Z,4.70
2022-11-26T00:51:48.819Z,4.80
2022-11-26T00:54:18.785Z,4.80
2022-11-26T00:56:51.216Z,4.80
2022-11-26T00:59:23.878Z,4.70
2022-11-26T01:01:51.272Z,4.70
2022-11-26T01:04:25.576Z,4.90
2022-11-26T01:06:56.156Z,5.00
2022-11-26T01:09:33.556Z,5.00
2022-11-26T01:12:00.846Z,5.00
2022-11-26T01:14:33.083Z,5.10
2022-11-26T01:17:00.539Z,5.10
2022-11-26T01:19:32.265Z,5.00
2022-11-26T01:21:59.607Z,5.10
2022-11-26T01:24:26.736Z,5.10
2022-11-26T01:26:55.091Z,5.10
2022-11-26T01:29:22.395Z,5.20
2022-11-26T01:31:50.621Z,5.30
2022-11-26T01:34:19.958Z,5.30
2022-11-26T01:36:48.166Z,5.20
2022-11-26T01:39:19.596Z,5.10
2022-11-26T01:42:24.268Z,5.20
2022-11-26T01:44:51.530Z,5.20
2022-11-26T01:47:28.195Z,5.20
2022-11-26T01:50:30.165Z,5.30
2022-11-26T01:53:10.756Z,5.30
2022-11-26T01:56:11.527Z,5.30
2022-11-26T01:58:43.886Z,5.40
2022-11-26T02:01:13.921Z,5.40
2022-11-26T02:04:23.888Z,5.40
2022-11-26T02:06:52.646Z,5.40
2022-11-26T02:09:22.197Z,5.40
2022-11-26T02:11:49.938Z,5.40
2022-11-26T02:14:37.060Z,5.40
2022-11-26T02:17:31.006Z,5.40
2022-11-26T02:20:36.751Z,5.40
2022-11-26T02:23:30.161Z,5.40
2022-11-26T02:26:28.888Z,5.40
2022-11-26T02:29:22.056Z,5.40
2022-11-26T02:32:14.305Z,5.40
2022-11-26T02:35:25.789Z,5.40
2022-11-26T02:38:06.618Z,5.40
2022-11-26T02:40:34.261Z,5.40
2022-11-26T02:43:01.517Z,5.40
2022-11-26T02:45:39.141Z,5.40
2022-11-26T02:48:14.277Z,5.40
2022-11-26T02:51:10.656Z,5.40
2022-11-26T02:53:40.727Z,5.40
2022-11-26T02:56:15.886Z,5.40
2022-11-26T02:58:49.535Z,5.40
2022-11-26T03:01:37.537Z,5.40
2022-11-26T03:04:12.432Z,5.40
2022-11-26T03:06:41.528Z,5.40
2022-11-26T03:09:08.727Z,5.40
2022-11-26T03:11:36.104Z,5.40
2022-11-26T03:14:03.356Z,5.40
2022-11-26T03:16:30.830Z,5.40
2022-11-26T03:18:59.095Z,5.40
2022-11-26T03:21:27.926Z,5.40
2022-11-26T03:23:57.137Z,5.40
2022-11-26T03:26:25.436Z,5.40
2022-11-26T03:28:53.626Z,5.40
2022-11-26T03:31:24.984Z,5.40
2022-11-26T03:33:54.469Z,5.40
2022-11-26T03:36:23.638Z,5.40
2022-11-26T03:38:54.834Z,5.50
2022-11-26T03:41:23.607Z,5.40
2022-11-26T03:43:51.826Z,5.50
2022-11-26T03:46:19.226Z,5.50
2022-11-26T03:48:49.577Z,5.50
2022-11-26T03:51:17.907Z,5.50
2022-11-26T03:53:47.818Z,5.60
2022-11-26T03:56:19.156Z,5.60
2022-11-26T03:58:46.435Z,5.60
2022-11-26T04:01:14.838Z,5.60
2022-11-26T04:03:44.229Z,5.70
2022-11-26T04:06:11.366Z,5.70
2022-11-26T04:08:38.656Z,5.70
2022-11-26T04:11:06.028Z,5.70
2022-11-26T04:13:34.887Z,5.70
2022-11-26T04:16:04.166Z,5.70
2022-11-26T04:18:31.356Z,5.80
2022-11-26T04:20:58.638Z,5.70
2022-11-26T04:23:28.361Z,5.70
2022-11-26T04:25:55.587Z,5.70
2022-11-26T04:28:24.846Z,5.70
2022-11-26T04:30:53.117Z,5.80
2022-11-26T04:33:22.433Z,5.80
2022-11-26T04:35:51.136Z,5.70
2022-11-26T04:38:24.173Z,5.80
2022-11-26T04:40:52.938Z,5.80
2022-11-26T04:43:21.218Z,5.80
2022-11-26T04:45:50.544Z,5.90
2022-11-26T04:48:18.898Z,5.90
2022-11-26T04:50:48.497Z,5.90
2022-11-26T04:53:22.040Z,5.90
2022-11-26T04:55:51.707Z,5.90
2022-11-26T04:58:23.977Z,5.90
2022-11-26T05:00:51.624Z,6.00
2022-11-26T05:03:19.677Z,6.00
2022-11-26T05:05:47.968Z,6.00
2022-11-26T05:08:15.648Z,6.00
2022-11-26T05:10:42.968Z,6.00
2022-11-26T05:13:11.238Z,6.00
2022-11-26T05:15:39.527Z,6.00
2022-11-26T05:18:07.757Z,6.00
2022-11-26T05:20:35.056Z,5.90
2022-11-26T05:23:04.667Z,6.00
2022-11-26T05:25:38.317Z,5.90
2022-11-26T05:28:06.657Z,5.90
2022-11-26T05:30:34.518Z,5.80
2022-11-26T05:33:03.790Z,5.80
2022-11-26T05:35:31.037Z,5.80
2022-11-26T05:37:59.697Z,5.80
2022-11-26T05:40:26.933Z,5.80
2022-11-26T05:42:54.218Z,5.80
2022-11-26T05:45:21.437Z,5.80
2022-11-26T05:47:48.737Z,5.90
2022-11-26T05:50:15.981Z,5.90
2022-11-26T05:52:45.459Z,5.90
2022-11-26T05:55:13.806Z,6.00
2022-11-26T05:57:45.116Z,6.00
2022-11-26T06:00:13.337Z,6.00
2022-11-26T06:02:41.059Z,6.00
2022-11-26T06:05:12.417Z,6.00
2022-11-26T06:07:44.602Z,6.00
2022-11-26T06:10:15.037Z,6.00
2022-11-26T06:12:44.248Z,6.10
2022-11-26T06:15:11.667Z,6.00
2022-11-26T06:17:47.068Z,6.10
2022-11-26T06:20:15.846Z,6.20
2022-11-26T06:22:45.036Z,6.30
2022-11-26T06:25:14.461Z,6.20
2022-11-26T06:27:42.193Z,6.30
2022-11-26T06:30:12.348Z,6.20
2022-11-26T06:32:44.817Z,6.30
2022-11-26T06:35:13.147Z,6.30
2022-11-26T06:37:42.476Z,6.30
2022-11-26T06:40:16.187Z,6.30
2022-11-26T06:42:47.596Z,6.30
2022-11-26T06:45:14.948Z,6.30
2022-11-26T06:47:43.287Z,6.30
2022-11-26T06:50:15.020Z,6.30
2022-11-26T06:52:42.686Z,6.30
2022-11-26T06:55:10.907Z,6.30
2022-11-26T06:57:38.606Z,6.30
2022-11-26T07:00:07.278Z,6.30
2022-11-26T07:02:34.574Z,6.30
2022-11-26T07:05:03.115Z,6.30
2022-11-26T07:07:40.787Z,6.30
2022-11-26T07:10:08.717Z,6.30
2022-11-26T07:12:36.878Z,6.30
2022-11-26T07:15:10.617Z,6.30
2022-11-26T07:17:37.849Z,6.30
2022-11-26T07:20:08.607Z,6.40
2022-11-26T07:22:36.167Z,6.40
2022-11-26T07:25:12.140Z,6.50
2022-11-26T07:27:41.847Z,6.50
2022-11-26T07:30:10.637Z,6.50
2022-11-26T07:32:39.981Z,6.50
2022-11-26T07:35:09.206Z,6.50
2022-11-26T07:37:36.706Z,6.50
2022-11-26T07:40:06.006Z,6.50
2022-11-26T07:42:34.286Z,6.60
2022-11-26T07:45:01.455Z,6.70
2022-11-26T07:47:30.656Z,6.70
2022-11-26T07:49:58.976Z,6.80
2022-11-26T07:52:31.327Z,6.90
2022-11-26T07:54:59.582Z,7.10
2022-11-26T07:57:27.853Z,7.10
2022-11-26T07:59:56.061Z,7.10
2022-11-26T08:02:25.410Z,7.20
2022-11-26T08:04:53.092Z,7.40
2022-11-26T08:07:27.578Z,7.40
2022-11-26T08:09:56.670Z,7.40
2022-11-26T08:12:23.943Z,7.50
2022-11-26T08:14:54.342Z,7.50
2022-11-26T08:17:21.681Z,7.50
2022-11-26T08:19:48.882Z,7.50
2022-11-26T08:22:17.181Z,7.50
2022-11-26T08:24:44.459Z,7.50
2022-11-26T08:27:13.750Z,7.50
2022-11-26T08:29:40.971Z,7.50
2022-11-26T08:32:10.180Z,7.50
2022-11-26T08:34:38.183Z,7.60
2022-11-26T08:37:05.613Z,7.60
2022-11-26T08:39:32.912Z,7.70
2022-11-26T08:42:00.209Z,7.70
2022-11-26T08:44:29.050Z,7.70
2022-11-26T08:46:56.263Z,7.90
2022-11-26T08:49:23.572Z,7.80
2022-11-26T08:51:50.750Z,7.80
2022-11-26T08:54:18.100Z,7.90
2022-11-26T08:56:46.816Z,8.00
2022-11-26T08:59:14.470Z,8.00
2022-11-26T09:01:41.918Z,8.00
2022-11-26T09:04:09.194Z,8.10
2022-11-26T09:06:40.992Z,8.20
2022-11-26T09:09:13.036Z,8.30
2022-11-26T09:11:42.943Z,8.40
2022-11-26T09:14:11.845Z,8.40
2022-11-26T09:16:39.465Z,8.40
2022-11-26T09:19:07.689Z,8.40
2022-11-26T09:21:36.197Z,8.40
2022-11-26T09:24:03.564Z,8.40
2022-11-26T09:26:32.272Z,8.40
2022-11-26T09:29:01.055Z,8.40
2022-11-26T09:31:30.939Z,8.40
2022-11-26T09:33:59.866Z,8.40
2022-11-26T09:36:28.033Z,8.40
2022-11-26T09:38:57.440Z,8.40
2022-11-26T09:41:48.470Z,8.40
2022-11-26T09:44:54.476Z,8.60
2022-11-26T09:47:28.539Z,8.70
2022-11-26T09:50:10.902Z,8.80
2022-11-26T09:53:03.850Z,8.90
2022-11-26T09:55:38.924Z,8.90
2022-11-26T09:58:25.261Z,9.10
2022-11-26T10:00:57.396Z,9.20
2022-11-26T10:03:31.732Z,9.40
2022-11-26T10:06:14.283Z,9.40
2022-11-26T10:09:00.730Z,9.30
2022-11-26T10:11:50.113Z,9.30
2022-11-26T10:14:35.662Z,9.30
2022-11-26T10:17:24.340Z,9.30
2022-11-26T10:20:21.910Z,9.30
2022-11-26T10:23:17.761Z,9.40
2022-11-26T10:25:49.819Z,9.50
2022-11-26T10:28:29.890Z,9.60
2022-11-26T10:31:00.720Z,9.70
2022-11-26T10:33:53.641Z,9.80
2022-11-26T10:36:28.080Z,9.80
2022-11-26T10:38:56.639Z,9.60
2022-11-26T10:41:31.152Z,9.60
2022-11-26T10:44:41.582Z,9.80
2022-11-26T10:47:26.160Z,9.60
2022-11-26T10:50:14.402Z,9.70
2022-11-26T10:52:52.839Z,9.60
2022-11-26T10:55:41.489Z,9.40
2022-11-26T10:58:20.360Z,9.40
2022-11-26T11:00:50.648Z,9.30
2022-11-26T11:03:51.750Z,9.20
2022-11-26T11:06:33.632Z,9.30
2022-11-26T11:09:00.981Z,9.30
2022-11-26T11:11:31.111Z,9.30
2022-11-26T11:13:58.611Z,9.40
2022-11-26T11:16:43.566Z,9.40
2022-11-26T11:19:24.840Z,9.30
2022-11-26T11:21:52.713Z,9.20
2022-11-26T11:24:28.810Z,9.10
2022-11-26T11:26:58.242Z,9.10
2022-11-26T11:29:37.019Z,9.10
2022-11-26T11:32:07.080Z,9.00
2022-11-26T11:34:42.799Z,8.90
2022-11-26T11:37:14.923Z,8.90
2022-11-26T11:39:43.789Z,8.80
2022-11-26T11:42:31.189Z,8.80
2022-11-26T11:45:01.028Z,8.70
2022-11-26T11:47:41.893Z,8.70
2022-11-26T11:50:29.485Z,8.80
2022-11-26T11:53:04.158Z,8.90
2022-11-26T11:56:08.668Z,9.10
2022-11-26T11:58:53.920Z,9.10
2022-11-26T12:01:36.361Z,9.10
2022-11-26T12:04:42.405Z,9.00
2022-11-26T12:07:34.596Z,9.00
2022-11-26T12:10:37.792Z,8.90
2022-11-26T12:13:08.298Z,8.90
2022-11-26T12:15:46.040Z,8.90
2022-11-26T12:18:45.987Z,8.90
2022-11-26T12:21:16.260Z,9.00
2022-11-26T12:23:52.498Z,9.10
2022-11-26T12:26:37.540Z,9.30
2022-11-26T12:29:21.913Z,9.60
2022-11-26T12:32:01.516Z,9.60
2022-11-26T12:34:40.366Z,9.70
2022-11-26T12:37:21.593Z,9.80
2022-11-26T12:40:04.530Z,9.80
2022-11-26T12:42:44.360Z,9.80
2022-11-26T12:45:30.528Z,9.70
2022-11-26T12:48:07.895Z,9.70
2022-11-26T12:50:45.126Z,9.70
2022-11-26T12:53:45.229Z,9.70
2022-11-26T12:56:20.392Z,9.80
2022-11-26T12:59:00.477Z,9.80
2022-11-26T13:01:28.538Z,9.80
2022-11-26T13:04:21.627Z,9.70
2022-11-26T13:07:36.035Z,9.80
2022-11-26T13:10:24.437Z,9.80
2022-11-26T13:12:56.770Z,9.70
2022-11-26T13:15:39.772Z,9.70
2022-11-26T13:18:20.381Z,9.70
2022-11-26T13:20:55.835Z,9.60
2022-11-26T13:23:38.362Z,9.60
2022-11-26T13:26:26.637Z,9.60
2022-11-26T13:28:56.803Z,9.60
2022-11-26T13:31:29.827Z,9.70
2022-11-26T13:34:22.829Z,9.70
2022-11-26T13:37:18.084Z,9.80
2022-11-26T13:39:54.693Z,9.80
2022-11-26T13:42:40.577Z,9.90
2022-11-26T13:45:42.108Z,9.90
2022-11-26T13:48:44.630Z,9.80
2022-11-26T13:51:43.003Z,9.90
2022-11-26T13:54:16.145Z,9.90
2022-11-26T13:56:45.430Z,9.90
2022-11-26T13:59:26.870Z,9.80
2022-11-26T14:01:56.700Z,9.80
2022-11-26T14:04:23.915Z,9.70
2022-11-26T14:07:06.286Z,9.60
2022-11-26T14:09:42.580Z,9.60
2022-11-26T14:12:14.428Z,9.60
2022-11-26T14:14:43.773Z,9.60
2022-11-26T14:17:12.499Z,9.60
2022-11-26T14:19:42.881Z,9.60
2022-11-26T14:22:31.733Z,9.50
2022-11-26T14:25:09.332Z,9.40
2022-11-26T14:27:41.403Z,9.30
2022-11-26T14:30:08.650Z,9.30
2022-11-26T14:32:55.365Z,9.20
2022-11-26T14:35:34.352Z,9.20
2022-11-26T14:38:22.245Z,9.20
2022-11-26T14:41:00.738Z,9.10
2022-11-26T14:43:30.623Z,9.10
2022-11-26T14:46:16.726Z,9.00
2022-11-26T14:48:50.563Z,8.90
2022-11-26T14:51:24.992Z,8.90
2022-11-26T14:53:53.823Z,8.70
2022-11-26T14:56:24.152Z,8.60
2022-11-26T14:58:56.493Z,8.60
2022-11-26T15:01:25.926Z,8.50
2022-11-26T15:04:05.584Z,8.50
2022-11-26T15:06:38.942Z,8.40
2022-11-26T15:09:11.277Z,8.50
2022-11-26T15:11:42.448Z,8.60
2022-11-26T15:14:21.695Z,8.50
2022-11-26T15:17:01.825Z,8.50
2022-11-26T15:19:33.006Z,8.50
2022-11-26T15:22:04.985Z,8.50
2022-11-26T15:24:32.384Z,8.50
2022-11-26T15:26:59.649Z,8.50
2022-11-26T15:29:31.255Z,8.50
2022-11-26T15:31:58.753Z,8.50
2022-11-26T15:34:28.354Z,8.50
2022-11-26T15:36:55.825Z,8.50
2022-11-26T15:39:29.168Z,8.40
2022-11-26T15:42:03.137Z,8.30
2022-11-26T15:44:39.147Z,8.20
2022-11-26T15:47:22.295Z,8.10
2022-11-26T15:49:55.003Z,8.10
2022-11-26T15:52:38.266Z,8.00
2022-11-26T15:55:12.868Z,8.00
2022-11-26T15:57:42.424Z,8.00
2022-11-26T16:00:33.606Z,8.10
2022-11-26T16:03:00.897Z,8.20
2022-11-26T16:05:38.887Z,8.20
2022-11-26T16:08:28.079Z,8.10
2022-11-26T16:10:57.285Z,8.00
2022-11-26T16:13:29.442Z,8.10
2022-11-26T16:16:20.086Z,8.00
2022-11-26T16:18:54.453Z,8.00
2022-11-26T16:21:36.983Z,8.00
2022-11-26T16:24:07.436Z,8.00
2022-11-26T16:26:58.481Z,7.90
2022-11-26T16:29:27.117Z,7.90
2022-11-26T16:31:54.363Z,7.80
2022-11-26T16:34:22.037Z,7.90
2022-11-26T16:36:49.380Z,7.90
2022-11-26T16:39:17.533Z,7.90
2022-11-26T16:41:44.827Z,7.90
2022-11-26T16:44:13.174Z,8.00
2022-11-26T16:46:41.446Z,8.00
2022-11-26T16:49:10.933Z,8.00
2022-11-26T16:51:38.094Z,8.00
2022-11-26T16:54:05.263Z,8.10
2022-11-26T16:56:38.615Z,8.00
2022-11-26T16:59:22.714Z,8.00
2022-11-26T17:01:50.069Z,8.00
2022-11-26T17:04:19.092Z,8.00
2022-11-26T17:06:46.874Z,8.00
2022-11-26T17:09:21.167Z,8.00
2022-11-26T17:11:49.472Z,8.00
2022-11-26T17:14:16.753Z,8.00
2022-11-26T17:16:44.083Z,8.00
2022-11-26T17:19:14.018Z,8.00
2022-11-26T17:21:41.284Z,8.00
2022-11-26T17:24:09.553Z,8.00
2022-11-26T17:26:36.932Z,8.00
2022-11-26T17:29:04.533Z,8.00
2022-11-26T17:31:31.911Z,8.00
2022-11-26T17:33:59.402Z,8.00
2022-11-26T17:36:26.683Z,8.10
2022-11-26T17:38:54.177Z,8.10
2022-11-26T17:41:21.473Z,8.10
2022-11-26T17:43:48.715Z,8.10
2022-11-26T17:46:19.551Z,8.10
2022-11-26T17:48:49.558Z,8.10
2022-11-26T17:51:16.902Z,8.00
2022-11-26T17:53:45.249Z,8.00
2022-11-26T17:56:21.431Z,8.00
2022-11-26T17:58:48.851Z,8.00
2022-11-26T18:01:17.456Z,8.00
2022-11-26T18:03:45.792Z,8.00
2022-11-26T18:06:18.740Z,8.10
2022-11-26T18:08:46.416Z,8.00
2022-11-26T18:11:15.977Z,7.90
2022-11-26T18:13:43.473Z,7.90
2022-11-26T18:16:11.790Z,7.90
2022-11-26T18:18:40.071Z,7.90
2022-11-26T18:21:07.212Z,7.90
2022-11-26T18:23:34.792Z,8.00
2022-11-26T18:26:01.911Z,8.00
2022-11-26T18:28:30.068Z,8.00
2022-11-26T18:30:58.690Z,7.90
2022-11-26T18:33:26.844Z,7.80
2022-11-26T18:35:54.324Z,7.80
2022-11-26T18:38:21.714Z,7.80
2022-11-26T18:40:58.770Z,7.70
2022-11-26T18:43:25.999Z,7.70
2022-11-26T18:45:53.199Z,7.70
2022-11-26T18:48:21.584Z,7.70
2022-11-26T18:50:59.123Z,7.70
2022-11-26T18:53:27.586Z,7.60
2022-11-26T18:55:56.399Z,7.70
2022-11-26T18:58:25.434Z,7.70
2022-11-26T19:00:58.786Z,7.60
2022-11-26T19:03:28.420Z,7.60
2022-11-26T19:05:56.219Z,7.70
2022-11-26T19:08:24.335Z,7.70
2022-11-26T19:10:51.767Z,7.80
2022-11-26T19:13:19.073Z,7.80
2022-11-26T19:15:47.734Z,7.80
2022-11-26T19:18:16.165Z,7.90
2022-11-26T19:20:51.456Z,7.70
2022-11-26T19:23:24.402Z,7.60
2022-11-26T19:25:52.003Z,7.40
2022-11-26T19:28:19.187Z,7.20
2022-11-26T19:30:59.853Z,7.10
2022-11-26T19:33:27.258Z,6.90
2022-11-26T19:35:55.428Z,6.80
2022-11-26T19:38:23.907Z,6.70
2022-11-26T19:40:58.402Z,6.60
2022-11-26T19:43:27.739Z,6.50
2022-11-26T19:46:11.372Z,6.30
2022-11-26T19:48:41.082Z,6.10
2022-11-26T19:51:10.611Z,6.00
2022-11-26T19:53:38.741Z,6.00
2022-11-26T19:56:09.629Z,5.90
2022-11-26T19:58:37.873Z,5.90
2022-11-26T20:01:10.482Z,5.80
2022-11-26T20:03:37.944Z,5.90
2022-11-26T20:06:09.144Z,5.90
2022-11-26T20:08:39.359Z,5.80
2022-11-26T20:11:08.721Z,5.60
2022-11-26T20:13:38.923Z,5.70
2022-11-26T20:16:09.186Z,5.80
2022-11-26T20:18:38.592Z,5.90
2022-11-26T20:21:10.360Z,5.80
2022-11-26T20:23:41.210Z,5.80
2022-11-26T20:26:31.742Z,5.70
2022-11-26T20:29:09.243Z,5.70
2022-11-26T20:31:43.382Z,5.70
2022-11-26T20:34:15.024Z,5.70
2022-11-26T20:36:42.583Z,5.60
2022-11-26T20:39:18.313Z,5.40
2022-11-26T20:41:46.382Z,5.30
2022-11-26T20:44:14.731Z,5.00
2022-11-26T20:46:42.811Z,5.10
2022-11-26T20:49:12.117Z,5.10
2022-11-26T20:51:39.862Z,5.10
2022-11-26T20:54:07.178Z,5.20
2022-11-26T20:56:35.871Z,5.20
2022-11-26T20:59:03.503Z,5.10
2022-11-26T21:01:31.913Z,5.10
2022-11-26T21:03:59.820Z,5.10
2022-11-26T21:06:31.642Z,5.10
2022-11-26T21:09:05.187Z,5.00
2022-11-26T21:11:32.420Z,5.20
2022-11-26T21:14:01.936Z,5.30
2022-11-26T21:16:32.253Z,5.40
2022-11-26T21:19:01.409Z,5.50
2022-11-26T21:21:29.308Z,5.40
2022-11-26T21:23:58.139Z,5.50
2022-11-26T21:26:26.558Z,5.50
2022-11-26T21:28:56.570Z,5.50
2022-11-26T21:31:24.800Z,5.50
2022-11-26T21:34:01.870Z,5.50
2022-11-26T21:36:31.999Z,5.60
2022-11-26T21:39:01.069Z,5.60
2022-11-26T21:41:28.805Z,5.50
2022-11-26T21:43:55.975Z,5.50
2022-11-26T21:46:27.660Z,5.40
2022-11-26T21:48:56.487Z,5.40
2022-11-26T21:51:30.494Z,5.30
2022-11-26T21:53:58.578Z,5.10
2022-11-26T21:56:33.178Z,5.00
2022-11-26T21:59:01.663Z,5.00
2022-11-26T22:01:30.482Z,4.80
2022-11-26T22:04:04.362Z,4.60
2022-11-26T22:06:32.042Z,4.50
2022-11-26T22:08:59.687Z,4.40
2022-11-26T22:11:29.990Z,4.20
2022-11-26T22:13:57.694Z,3.80
2022-11-26T22:16:27.124Z,3.70
2022-11-26T22:18:56.500Z,3.50
2022-11-26T22:21:29.361Z,3.50
2022-11-26T22:23:57.828Z,3.50
2022-11-26T22:26:26.088Z,3.50
2022-11-26T22:28:55.756Z,3.50
2022-11-26T22:31:25.565Z,3.50
2022-11-26T22:33:59.738Z,3.60
2022-11-26T22:36:27.720Z,3.70
2022-11-26T22:38:55.205Z,3.50
2022-11-26T22:41:23.378Z,3.60
2022-11-26T22:43:51.983Z,3.50
2022-11-26T22:46:22.125Z,3.50
2022-11-26T22:48:54.939Z,3.40
2022-11-26T22:51:22.440Z,3.30
2022-11-26T22:53:57.587Z,3.20
2022-11-26T22:56:26.153Z,3.10
2022-11-26T22:58:53.889Z,2.90
2022-11-26T23:01:24.223Z,2.80
2022-11-26T23:03:52.579Z,2.70
2022-11-26T23:06:22.959Z,2.80
2022-11-26T23:08:51.093Z,3.00
2022-11-26T23:11:20.242Z,3.40
2022-11-26T23:13:49.799Z,3.50
2022-11-26T23:16:18.557Z,3.40
2022-11-26T23:18:46.237Z,3.20
2022-11-26T23:21:40.000Z,3.30
2022-11-26T23:24:08.245Z,3.50
2022-11-26T23:26:37.608Z,3.50
2022-11-26T23:29:06.723Z,3.50
2022-11-26T23:31:37.404Z,3.50
2022-11-26T23:34:05.848Z,3.40
2022-11-26T23:36:33.513Z,3.20
2022-11-26T23:39:02.607Z,3.40
2022-11-26T23:41:30.583Z,3.30
2022-11-26T23:43:57.868Z,3.20
2022-11-26T23:46:28.766Z,3.20
2022-11-26T23:48:56.123Z,3.50
2022-11-26T23:51:27.852Z,3.90
2022-11-26T23:53:55.635Z,4.30
2022-11-26T23:56:33.864Z,4.60
2022-11-26T23:59:03.107Z,4.70
